sensor_id;sensor_type;location;lat;lon;timestamp;pressure;altitude;pressure_sealevel;temperature;humidity
19086;BME280;9675;51.538;6.728;2022-11-27T00:01:30;102274.41;;;7.96;100.00
19086;BME280;9675;51.538;6.728;2022-11-27T00:03:57;102283.00;;;7.97;100.00
19086;BME280;9675;51.538;6.728;2022-11-27T00:06:26;102282.09;;;7.96;100.00
19086;BME280;9675;51.538;6.728;2022-11-27T00:08:56;102275.03;;;7.94;100.00
19086;BME280;9675;51.538;6.728;2022-11-27T00:11:26;102282.88;;;7.95;100.00
19086;BME280;9675;51.538;6.728;2022-11-27T00:13:54;102271.84;;;7.96;100.00
19086;BME280;9675;51.538;6.728;2022-11-27T00:16:23;102275.41;;;7.98;100.00
19086;BME280;9675;51.538;6.728;2022-11-27T00:18:50;102265.44;;;7.91;100.00
19086;BME280;9675;51.538;6.728;2022-11-27T00:21:21;102272.84;;;7.88;100.00
19086;BME280;9675;51.538;6.728;2022-11-27T00:23:49;102270.28;;;7.88;100.00
19086;BME280;9675;51.538;6.728;2022-11-27T00:26:19;102271.34;;;7.90;100.00
19086;BME280;9675;51.538;6.728;2022-11-27T00:28:47;102267.25;;;7.92;100.00
19086;BME280;9675;51.538;6.728;2022-11-27T00:31:16;102265.97;;;7.87;100.00
19086;BME280;9675;51.538;6.728;2022-11-27T00:33:44;102254.16;;;7.79;100.00
19086;BME280;9675;51.538;6.728;2022-11-27T00:36:14;102264.28;;;7.78;100.00
19086;BME280;9675;51.538;6.728;2022-11-27T00:38:41;102262.63;;;7.78;100.00
19086;BME280;9675;51.538;6.728;2022-11-27T00:41:11;102255.19;;;7.81;100.00
19086;BME280;9675;51.538;6.728;2022-11-27T00:43:40;102247.22;;;7.78;100.00
19086;BME280;9675;51.538;6.728;2022-11-27T00:46:07;102238.00;;;7.80;100.00
19086;BME280;9675;51.538;6.728;2022-11-27T00:48:34;102235.06;;;7.76;100.00
19086;BME280;9675;51.538;6.728;2022-11-27T00:51:04;102235.69;;;7.73;100.00
19086;BME280;9675;51.538;6.728;2022-11-27T00:53:32;102242.63;;;7.74;100.00
19086;BME280;9675;51.538;6.728;2022-11-27T00:56:00;102243.38;;;7.73;100.00
19086;BME280;9675;51.538;6.728;2022-11-27T00:58:27;102240.59;;;7.70;100.00
19086;BME280;9675;51.538;6.728;2022-11-27T01:00:58;102237.75;;;7.67;100.00
19086;BME280;9675;51.538;6.728;2022-11-27T01:03:27;102241.88;;;7.65;100.00
19086;BME280;9675;51.538;6.728;2022-11-27T01:05:55;102240.44;;;7.58;100.00
19086;BME280;9675;51.538;6.728;2022-11-27T01:08:22;102239.31;;;7.55;100.00
19086;BME280;9675;51.538;6.728;2022-11-27T01:10:51;102237.50;;;7.54;100.00
19086;BME280;9675;51.538;6.728;2022-11-27T01:13:21;102241.88;;;7.55;100.00
19086;BME280;9675;51.538;6.728;2022-11-27T01:15:59;102242.63;;;7.54;100.00
19086;BME280;9675;51.538;6.728;2022-11-27T01:18:27;102239.31;;;7.55;100.00
19086;BME280;9675;51.538;6.728;2022-11-27T01:20:55;102235.72;;;7.53;100.00
19086;BME280;9675;51.538;6.728;2022-11-27T01:23:23;102226.34;;;7.53;100.00
19086;BME280;9675;51.538;6.728;2022-11-27T01:25:50;102242.63;;;7.54;100.00
19086;BME280;9675;51.538;6.728;2022-11-27T01:28:19;102237.25;;;7.51;100.00
19086;BME280;9675;51.538;6.728;2022-11-27T01:30:47;102240.81;;;7.53;100.00
19086;BME280;9675;51.538;6.728;2022-11-27T01:33:15;102235.47;;;7.50;100.00
19086;BME280;9675;51.538;6.728;2022-11-27T01:35:42;102233.41;;;7.46;100.00
19086;BME280;9675;51.538;6.728;2022-11-27T01:38:18;102233.41;;;7.46;100.00
19086;BME280;9675;51.538;6.728;2022-11-27T01:40:45;102232.25;;;7.42;100.00
19086;BME280;9675;51.538;6.728;2022-11-27T01:43:14;102233.41;;;7.36;100.00
19086;BME280;9675;51.538;6.728;2022-11-27T01:45:43;102218.81;;;7.35;100.00
19086;BME280;9675;51.538;6.728;2022-11-27T01:48:14;102223.16;;;7.36;100.00
19086;BME280;9675;51.538;6.728;2022-11-27T01:50:41;102212.50;;;7.31;100.00
19086;BME280;9675;51.538;6.728;2022-11-27T01:53:13;102217.00;;;7.34;100.00
19086;BME280;9675;51.538;6.728;2022-11-27T01:55:47;102221.59;;;7.28;100.00
19086;BME280;9675;51.538;6.728;2022-11-27T01:58:21;102219.81;;;7.26;100.00
19086;BME280;9675;51.538;6.728;2022-11-27T02:00:50;102225.69;;;7.25;100.00
19086;BME280;9675;51.538;6.728;2022-11-27T02:03:19;102224.03;;;7.26;100.00
19086;BME280;9675;51.538;6.728;2022-11-27T02:05:46;102223.41;;;7.29;100.00
19086;BME280;9675;51.538;6.728;2022-11-27T02:08:15;102220.69;;;7.27;100.00
19086;BME280;9675;51.538;6.728;2022-11-27T02:10:48;102212.78;;;7.24;100.00
19086;BME280;9675;51.538;6.728;2022-11-27T02:13:24;102213.38;;;7.21;100.00
19086;BME280;9675;51.538;6.728;2022-11-27T02:16:08;102208.16;;;7.20;100.00
19086;BME280;9675;51.538;6.728;2022-11-27T02:18:47;102207.25;;;7.19;100.00
19086;BME280;9675;51.538;6.728;2022-11-27T02:21:21;102204.56;;;7.18;100.00
19086;BME280;9675;51.538;6.728;2022-11-27T02:24:31;102207.25;;;7.19;100.00
19086;BME280;9675;51.538;6.728;2022-11-27T02:27:41;102197.63;;;7.17;100.00
19086;BME280;9675;51.538;6.728;2022-11-27T02:30:11;102180.47;;;7.16;100.00
19086;BME280;9675;51.538;6.728;2022-11-27T02:32:46;102182.78;;;7.13;100.00
19086;BME280;9675;51.538;6.728;2022-11-27T02:35:21;102174.81;;;7.10;100.00
19086;BME280;9675;51.538;6.728;2022-11-27T02:37:55;102161.00;;;7.08;100.00
19086;BME280;9675;51.538;6.728;2022-11-27T02:40:30;102155.75;;;7.06;100.00
19086;BME280;9675;51.538;6.728;2022-11-27T02:43:06;102146.94;;;7.03;100.00
19086;BME280;9675;51.538;6.728;2022-11-27T02:45:40;102148.72;;;7.04;100.00
19086;BME280;9675;51.538;6.728;2022-11-27T02:48:12;102140.75;;;7.01;100.00
19086;BME280;9675;51.538;6.728;2022-11-27T02:50:43;102135.53;;;6.99;100.00
19086;BME280;9675;51.538;6.728;2022-11-27T02:53:16;102135.53;;;6.99;100.00
19086;BME280;9675;51.538;6.728;2022-11-27T02:55:47;102129.38;;;6.97;100.00
19086;BME280;9675;51.538;6.728;2022-11-27T02:58:20;102125.03;;;6.96;100.00
19086;BME280;9675;51.538;6.728;2022-11-27T03:00:50;102133.97;;;6.91;100.00
19086;BME280;9675;51.538;6.728;2022-11-27T03:03:29;102132.69;;;6.86;100.00
19086;BME280;9675;51.538;6.728;2022-11-27T03:06:05;102128.22;;;6.83;100.00
19086;BME280;9675;51.538;6.728;2022-11-27T03:08:40;102126.44;;;6.82;100.00
19086;BME280;9675;51.538;6.728;2022-11-27T03:11:10;102115.00;;;6.79;100.00
19086;BME280;9675;51.538;6.728;2022-11-27T03:13:41;102113.50;;;6.81;100.00
19086;BME280;9675;51.538;6.728;2022-11-27T03:16:16;102114.25;;;6.80;100.00
19086;BME280;9675;51.538;6.728;2022-11-27T03:18:57;102111.31;;;6.75;100.00
19086;BME280;9675;51.538;6.728;2022-11-27T03:21:30;102122.44;;;6.76;100.00
19086;BME280;9675;51.538;6.728;2022-11-27T03:23:59;102113.09;;;6.76;100.00
19086;BME280;9675;51.538;6.728;2022-11-27T03:26:27;102114.63;;;6.74;100.00
19086;BME280;9675;51.538;6.728;2022-11-27T03:28:57;102116.28;;;6.74;100.00
19086;BME280;9675;51.538;6.728;2022-11-27T03:31:29;102116.03;;;6.71;100.00
19086;BME280;9675;51.538;6.728;2022-11-27T03:33:57;102119.22;;;6.68;100.00
19086;BME280;9675;51.538;6.728;2022-11-27T03:36:24;102111.53;;;6.68;100.00
19086;BME280;9675;51.538;6.728;2022-11-27T03:38:52;102107.69;;;6.63;100.00
19086;BME280;9675;51.538;6.728;2022-11-27T03:41:31;102110.91;;;6.61;100.00
19086;BME280;9675;51.538;6.728;2022-11-27T03:44:09;102120.09;;;6.59;100.00
19086;BME280;9675;51.538;6.728;2022-11-27T03:46:54;102122.19;;;6.63;100.00
19086;BME280;9675;51.538;6.728;2022-11-27T03:49:39;102108.34;;;6.61;100.00
19086;BME280;9675;51.538;6.728;2022-11-27T03:52:19;102107.44;;;6.60;100.00
19086;BME280;9675;51.538;6.728;2022-11-27T03:54:58;102093.00;;;6.61;100.00
19086;BME280;9675;51.538;6.728;2022-11-27T03:57:33;102086.84;;;6.59;100.00
19086;BME280;9675;51.538;6.728;2022-11-27T04:00:07;102082.50;;;6.58;100.00
19086;BME280;9675;51.538;6.728;2022-11-27T04:02:44;102073.94;;;6.57;100.00
19086;BME280;9675;51.538;6.728;2022-11-27T04:05:13;102086.59;;;6.56;100.00
19086;BME280;9675;51.538;6.728;2022-11-27T04:07:40;102078.66;;;6.53;100.00
19086;BME280;9675;51.538;6.728;2022-11-27T04:10:09;102062.78;;;6.47;100.00
19086;BME280;9675;51.538;6.728;2022-11-27T04:12:37;102053.31;;;6.46;100.00
19086;BME280;9675;51.538;6.728;2022-11-27T04:15:06;102062.41;;;6.42;100.00
19086;BME280;9675;51.538;6.728;2022-11-27T04:17:33;102067.91;;;6.47;100.00
19086;BME280;9675;51.538;6.728;2022-11-27T04:20:03;102071.22;;;6.46;100.00
19086;BME280;9675;51.538;6.728;2022-11-27T04:22:30;102053.31;;;6.46;100.00
19086;BME280;9675;51.538;6.728;2022-11-27T04:24:57;102047.16;;;6.44;100.00
19086;BME280;9675;51.538;6.728;2022-11-27T04:27:24;102044.59;;;6.44;100.00
19086;BME280;9675;51.538;6.728;2022-11-27T04:29:51;102043.84;;;6.45;100.00
19086;BME280;9675;51.538;6.728;2022-11-27T04:32:18;102038.72;;;6.45;100.00
19086;BME280;9675;51.538;6.728;2022-11-27T04:34:45;102042.94;;;6.44;100.00
19086;BME280;9675;51.538;6.728;2022-11-27T04:37:14;102031.81;;;6.44;100.00
19086;BME280;9675;51.538;6.728;2022-11-27T04:39:41;102034.13;;;6.40;100.00
19086;BME280;9675;51.538;6.728;2022-11-27T04:42:08;102035.91;;;6.42;100.00
19086;BME280;9675;51.538;6.728;2022-11-27T04:44:35;102035.41;;;6.46;100.00
19086;BME280;9675;51.538;6.728;2022-11-27T04:47:02;102038.72;;;6.45;100.00
19086;BME280;9675;51.538;6.728;2022-11-27T04:49:29;102029.25;;;6.44;100.00
19086;BME280;9675;51.538;6.728;2022-11-27T04:51:56;102036.91;;;6.44;100.00
19086;BME280;9675;51.538;6.728;2022-11-27T04:54:25;102028.47;;;6.45;100.00
19086;BME280;9675;51.538;6.728;2022-11-27T04:56:52;102032.09;;;6.47;100.00
19086;BME280;9675;51.538;6.728;2022-11-27T04:59:19;102026.97;;;6.47;100.00
19086;BME280;9675;51.538;6.728;2022-11-27T05:01:47;102026.31;;;6.49;100.00
19086;BME280;9675;51.538;6.728;2022-11-27T05:04:14;102028.75;;;6.48;100.00
19086;BME280;9675;51.538;6.728;2022-11-27T05:06:41;102034.75;;;6.48;100.00
19086;BME280;9675;51.538;6.728;2022-11-27T05:09:08;102029.00;;;6.51;100.00
19086;BME280;9675;51.538;6.728;2022-11-27T05:11:36;102024.13;;;6.54;100.00
19086;BME280;9675;51.538;6.728;2022-11-27T05:14:03;102007.03;;;6.53;100.00
19086;BME280;9675;51.538;6.728;2022-11-27T05:16:46;102011.09;;;6.51;100.00
19086;BME280;9675;51.538;6.728;2022-11-27T05:19:15;102008.53;;;6.51;100.00
19086;BME280;9675;51.538;6.728;2022-11-27T05:21:44;102002.53;;;6.50;100.00
19086;BME280;9675;51.538;6.728;2022-11-27T05:24:13;101997.53;;;6.52;100.00
19086;BME280;9675;51.538;6.728;2022-11-27T05:26:41;101995.88;;;6.52;100.00
19086;BME280;9675;51.538;6.728;2022-11-27T05:29:10;102000.09;;;6.52;100.00
19086;BME280;9675;51.538;6.728;2022-11-27T05:31:38;101993.19;;;6.51;100.00
19086;BME280;9675;51.538;6.728;2022-11-27T05:34:06;102000.88;;;6.51;100.00
19086;BME280;9675;51.538;6.728;2022-11-27T05:36:34;102003.28;;;6.49;100.00
19086;BME280;9675;51.538;6.728;2022-11-27T05:39:04;101998.06;;;6.48;100.00
19086;BME280;9675;51.538;6.728;2022-11-27T05:41:32;101986.03;;;6.47;100.00
19086;BME280;9675;51.538;6.728;2022-11-27T05:44:01;101986.03;;;6.47;100.00
19086;BME280;9675;51.538;6.728;2022-11-27T05:46:28;101983.56;;;6.48;100.00
19086;BME280;9675;51.538;6.728;2022-11-27T05:48:55;101986.13;;;6.48;100.00
19086;BME280;9675;51.538;6.728;2022-11-27T05:51:22;101977.47;;;6.46;100.00
19086;BME280;9675;51.538;6.728;2022-11-27T05:53:50;101974.00;;;6.46;100.00
19086;BME280;9675;51.538;6.728;2022-11-27T05:56:17;101972.84;;;6.42;100.00
19086;BME280;9675;51.538;6.728;2022-11-27T05:58:47;101977.84;;;6.40;100.00
19086;BME280;9675;51.538;6.728;2022-11-27T06:01:18;101969.13;;;6.38;100.00
19086;BME280;9675;51.538;6.728;2022-11-27T06:03:45;101970.78;;;6.38;100.00
19086;BME280;9675;51.538;6.728;2022-11-27T06:06:16;101965.03;;;6.40;100.00
19086;BME280;9675;51.538;6.728;2022-11-27T06:08:44;101958.13;;;6.39;100.00
19086;BME280;9675;51.538;6.728;2022-11-27T06:11:15;101957.50;;;6.42;100.00
19086;BME280;9675;51.538;6.728;2022-11-27T06:13:44;101961.72;;;6.42;100.00
19086;BME280;9675;51.538;6.728;2022-11-27T06:16:15;101959.78;;;6.39;100.00
19086;BME280;9675;51.538;6.728;2022-11-27T06:18:43;101951.22;;;6.38;100.00
19086;BME280;9675;51.538;6.728;2022-11-27T06:21:12;101957.22;;;6.39;100.00
19086;BME280;9675;51.538;6.728;2022-11-27T06:23:40;101953.00;;;6.39;100.00
19086;BME280;9675;51.538;6.728;2022-11-27T06:26:14;101952.41;;;6.42;100.00
19086;BME280;9675;51.538;6.728;2022-11-27T06:28:42;101953.25;;;6.43;100.00
19086;BME280;9675;51.538;6.728;2022-11-27T06:31:13;101958.38;;;6.43;100.00
19086;BME280;9675;51.538;6.728;2022-11-27T06:33:42;101950.69;;;6.43;100.00
19086;BME280;9675;51.538;6.728;2022-11-27T06:36:09;101943.03;;;6.43;100.00
19086;BME280;9675;51.538;6.728;2022-11-27T06:38:37;101952.78;;;6.47;100.00
19086;BME280;9675;51.538;6.728;2022-11-27T06:41:10;101948.41;;;6.46;100.00
19086;BME280;9675;51.538;6.728;2022-11-27T06:43:38;101944.19;;;6.46;100.00
19086;BME280;9675;51.538;6.728;2022-11-27T06:46:08;101932.31;;;6.47;100.00
19086;BME280;9675;51.538;6.728;2022-11-27T06:48:36;101923.06;;;6.49;100.00
19086;BME280;9675;51.538;6.728;2022-11-27T06:51:06;101915.91;;;6.45;100.00
19086;BME280;9675;51.538;6.728;2022-11-27T06:53:36;101912.31;;;6.43;100.00
19086;BME280;9675;51.538;6.728;2022-11-27T06:56:05;101912.47;;;6.44;100.00
19086;BME280;9675;51.538;6.728;2022-11-27T06:58:33;101911.56;;;6.44;100.00
19086;BME280;9675;51.538;6.728;2022-11-27T07:01:03;101915.69;;;6.42;100.00
19086;BME280;9675;51.538;6.728;2022-11-27T07:03:30;101910.56;;;6.42;100.00
19086;BME280;9675;51.538;6.728;2022-11-27T07:05:58;101915.53;;;6.40;100.00
19086;BME280;9675;51.538;6.728;2022-11-27T07:08:28;101905.19;;;6.38;100.00
19086;BME280;9675;51.538;6.728;2022-11-27T07:11:00;101904.56;;;6.41;100.00
19086;BME280;9675;51.538;6.728;2022-11-27T07:13:28;101906.97;;;6.39;100.00
19086;BME280;9675;51.538;6.728;2022-11-27T07:15:59;101896.50;;;6.36;100.00
19086;BME280;9675;51.538;6.728;2022-11-27T07:18:27;101900.06;;;6.38;100.00
19086;BME280;9675;51.538;6.728;2022-11-27T07:20:55;101889.06;;;6.39;100.00
19086;BME280;9675;51.538;6.728;2022-11-27T07:23:22;101900.34;;;6.42;100.00
19086;BME280;9675;51.538;6.728;2022-11-27T07:25:51;101902.75;;;6.40;100.00
19086;BME280;9675;51.538;6.728;2022-11-27T07:28:18;101902.88;;;6.42;100.00
19086;BME280;9675;51.538;6.728;2022-11-27T07:30:53;101894.31;;;6.41;100.00
19086;BME280;9675;51.538;6.728;2022-11-27T07:33:20;101896.22;;;6.44;100.00
19086;BME280;9675;51.538;6.728;2022-11-27T07:35:47;101887.03;;;6.46;100.00
19086;BME280;9675;51.538;6.728;2022-11-27T07:38:14;101886.13;;;6.45;100.00
19086;BME280;9675;51.538;6.728;2022-11-27T07:40:41;101894.69;;;6.46;100.00
19086;BME280;9675;51.538;6.728;2022-11-27T07:43:09;101880.09;;;6.45;100.00
19086;BME280;9675;51.538;6.728;2022-11-27T07:45:36;101887.78;;;6.45;100.00
19086;BME280;9675;51.538;6.728;2022-11-27T07:48:03;101882.53;;;6.43;100.00
19086;BME280;9675;51.538;6.728;2022-11-27T07:50:31;101880.88;;;6.44;100.00
19086;BME280;9675;51.538;6.728;2022-11-27T07:52:58;101885.22;;;6.45;100.00
19086;BME280;9675;51.538;6.728;2022-11-27T07:55:25;101887.91;;;6.46;100.00
19086;BME280;9675;51.538;6.728;2022-11-27T07:57:52;101887.16;;;6.47;100.00
19086;BME280;9675;51.538;6.728;2022-11-27T08:00:21;101888.81;;;6.47;100.00
19086;BME280;9675;51.538;6.728;2022-11-27T08:02:48;101890.59;;;6.48;100.00
19086;BME280;9675;51.538;6.728;2022-11-27T08:05:15;101884.59;;;6.47;100.00
19086;BME280;9675;51.538;6.728;2022-11-27T08:07:42;101884.69;;;6.49;100.00
19086;BME280;9675;51.538;6.728;2022-11-27T08:10:09;101870.38;;;6.51;100.00
19086;BME280;9675;51.538;6.728;2022-11-27T08:12:37;101863.75;;;6.53;100.00
19086;BME280;9675;51.538;6.728;2022-11-27T08:15:05;101871.50;;;6.54;100.00
19086;BME280;9675;51.538;6.728;2022-11-27T08:17:33;101868.84;;;6.53;100.00
19086;BME280;9675;51.538;6.728;2022-11-27T08:20:01;101863.75;;;6.53;100.00
19086;BME280;9675;51.538;6.728;2022-11-27T08:22:28;101863.97;;;6.56;100.00
19086;BME280;9675;51.538;6.728;2022-11-27T08:24:55;101868.19;;;6.55;100.00
19086;BME280;9675;51.538;6.728;2022-11-27T08:27:22;101867.56;;;6.58;100.00
19086;BME280;9675;51.538;6.728;2022-11-27T08:29:49;101866.78;;;6.59;100.00
19086;BME280;9675;51.538;6.728;2022-11-27T08:32:17;101861.66;;;6.59;100.00
19086;BME280;9675;51.538;6.728;2022-11-27T08:34:45;101860.13;;;6.61;100.00
19086;BME280;9675;51.538;6.728;2022-11-27T08:37:12;101856.91;;;6.63;100.00
19086;BME280;9675;51.538;6.728;2022-11-27T08:39:39;101849.34;;;6.65;100.00
19086;BME280;9675;51.538;6.728;2022-11-27T08:42:06;101846.03;;;6.66;100.00
19086;BME280;9675;51.538;6.728;2022-11-27T08:44:33;101846.94;;;6.66;100.00
19086;BME280;9675;51.538;6.728;2022-11-27T08:47:00;101846.28;;;6.69;100.00
19086;BME280;9675;51.538;6.728;2022-11-27T08:49:27;101840.25;;;6.68;100.00
19086;BME280;9675;51.538;6.728;2022-11-27T08:51:56;101838.72;;;6.70;100.00
19086;BME280;9675;51.538;6.728;2022-11-27T08:54:23;101839.63;;;6.71;100.00
19086;BME280;9675;51.538;6.728;2022-11-27T08:56:51;101838.09;;;6.73;100.00
19086;BME280;9675;51.538;6.728;2022-11-27T08:59:18;101838.09;;;6.73;100.00
19086;BME280;9675;51.538;6.728;2022-11-27T09:01:45;101829.88;;;6.77;100.00
19086;BME280;9675;51.538;6.728;2022-11-27T09:04:12;101836.91;;;6.79;100.00
19086;BME280;9675;51.538;6.728;2022-11-27T09:06:40;101828.31;;;6.79;100.00
19086;BME280;9675;51.538;6.728;2022-11-27T09:09:08;101825.25;;;6.83;100.00
19086;BME280;9675;51.538;6.728;2022-11-27T09:11:36;101821.03;;;6.83;100.00
19086;BME280;9675;51.538;6.728;2022-11-27T09:14:04;101817.03;;;6.87;100.00
19086;BME280;9675;51.538;6.728;2022-11-27T09:16:32;101821.50;;;6.90;100.00
19086;BME280;9675;51.538;6.728;2022-11-27T09:18:59;101819.34;;;6.94;100.00
19086;BME280;9675;51.538;6.728;2022-11-27T09:21:29;101806.53;;;6.94;100.00
19086;BME280;9675;51.538;6.728;2022-11-27T09:23:58;101806.75;;;6.97;100.00
19086;BME280;9675;51.538;6.728;2022-11-27T09:26:29;101805.88;;;6.97;100.00
19086;BME280;9675;51.538;6.728;2022-11-27T09:28:57;101802.66;;;6.99;100.00
19086;BME280;9675;51.538;6.728;2022-11-27T09:31:25;101809.56;;;7.00;100.00
19086;BME280;9675;51.538;6.728;2022-11-27T09:33:52;101804.69;;;7.03;100.00
19086;BME280;9675;51.538;6.728;2022-11-27T09:36:22;101799.44;;;7.02;100.00
19086;BME280;9675;51.538;6.728;2022-11-27T09:38:50;101810.81;;;7.05;100.00
19086;BME280;9675;51.538;6.728;2022-11-27T09:41:44;101800.69;;;7.07;100.00
19086;BME280;9675;51.538;6.728;2022-11-27T09:44:23;101800.06;;;7.09;100.00
19086;BME280;9675;51.538;6.728;2022-11-27T09:46:52;101804.38;;;7.10;100.00
19086;BME280;9675;51.538;6.728;2022-11-27T09:49:28;101802.84;;;7.12;100.00
19086;BME280;9675;51.538;6.728;2022-11-27T09:52:02;101799.66;;;7.15;100.00
19086;BME280;9675;51.538;6.728;2022-11-27T09:54:36;101802.31;;;7.16;100.00
19086;BME280;9675;51.538;6.728;2022-11-27T09:57:07;101791.28;;;7.17;100.00
19086;BME280;9675;51.538;6.728;2022-11-27T09:59:45;101799.31;;;7.22;100.00
19086;BME280;9675;51.538;6.728;2022-11-27T10:02:17;101801.25;;;7.24;100.00
19086;BME280;9675;51.538;6.728;2022-11-27T10:04:45;101796.34;;;7.28;100.00
19086;BME280;9675;51.538;6.728;2022-11-27T10:07:25;101798.38;;;7.32;100.00
19086;BME280;9675;51.538;6.728;2022-11-27T10:10:08;101792.47;;;7.33;100.00
19086;BME280;9675;51.538;6.728;2022-11-27T10:12:52;101793.59;;;7.36;100.00
19086;BME280;9675;51.538;6.728;2022-11-27T10:15:37;101782.59;;;7.37;100.00
19086;BME280;9675;51.538;6.728;2022-11-27T10:18:15;101781.94;;;7.40;100.00
19086;BME280;9675;51.538;6.728;2022-11-27T10:20:50;101787.97;;;7.40;100.00
19086;BME280;9675;51.538;6.728;2022-11-27T10:23:40;101769.69;;;7.36;100.00
19086;BME280;9675;51.538;6.728;2022-11-27T10:26:16;101774.59;;;7.44;100.00
19086;BME280;9675;51.538;6.728;2022-11-27T10:28:54;101770.38;;;7.45;100.00
19086;BME280;9675;51.538;6.728;2022-11-27T10:31:34;101763.47;;;7.44;100.00
19086;BME280;9675;51.538;6.728;2022-11-27T10:34:19;101771.50;;;7.48;100.00
19086;BME280;9675;51.538;6.728;2022-11-27T10:36:49;101759.56;;;7.49;100.00
19086;BME280;9675;51.538;6.728;2022-11-27T10:39:33;101754.56;;;7.50;100.00
19086;BME280;9675;51.538;6.728;2022-11-27T10:42:08;101755.47;;;7.51;100.00
19086;BME280;9675;51.538;6.728;2022-11-27T10:44:42;101740.09;;;7.51;100.00
19086;BME280;9675;51.538;6.728;2022-11-27T10:47:12;101740.09;;;7.51;100.00
19086;BME280;9675;51.538;6.728;2022-11-27T10:49:43;101731.59;;;7.52;100.00
19086;BME280;9675;51.538;6.728;2022-11-27T10:52:14;101726.47;;;7.52;100.00
19086;BME280;9675;51.538;6.728;2022-11-27T10:54:46;101711.09;;;7.52;100.00
19086;BME280;9675;51.538;6.728;2022-11-27T10:57:46;101703.53;;;7.53;100.00
19086;BME280;9675;51.538;6.728;2022-11-27T11:00:21;101703.53;;;7.53;100.00
19086;BME280;9675;51.538;6.728;2022-11-27T11:02:59;101695.97;;;7.55;100.00
19086;BME280;9675;51.538;6.728;2022-11-27T11:05:28;101683.94;;;7.54;100.00
19086;BME280;9675;51.538;6.728;2022-11-27T11:08:00;101687.53;;;7.56;100.00
19086;BME280;9675;51.538;6.728;2022-11-27T11:10:33;101670.34;;;7.55;100.00
19086;BME280;9675;51.538;6.728;2022-11-27T11:13:16;101672.91;;;7.55;100.00
19086;BME280;9675;51.538;6.728;2022-11-27T11:15:55;101670.56;;;7.58;100.00
19086;BME280;9675;51.538;6.728;2022-11-27T11:18:26;101666.34;;;7.58;100.00
19086;BME280;9675;51.538;6.728;2022-11-27T11:20:56;101656.22;;;7.60;100.00
19086;BME280;9675;51.538;6.728;2022-11-27T11:23:33;101653.84;;;7.63;100.00
19086;BME280;9675;51.538;6.728;2022-11-27T11:26:06;101657.44;;;7.65;100.00
19086;BME280;9675;51.538;6.728;2022-11-27T11:28:43;101663.25;;;7.74;100.00
19086;BME280;9675;51.538;6.728;2022-11-27T11:31:18;101632.03;;;7.80;100.00
19086;BME280;9675;51.538;6.728;2022-11-27T11:33:51;101633.13;;;7.83;100.00
19086;BME280;9675;51.538;6.728;2022-11-27T11:36:21;101619.44;;;7.83;100.00
19086;BME280;9675;51.538;6.728;2022-11-27T11:38:50;101632.94;;;7.80;100.00
19086;BME280;9675;51.538;6.728;2022-11-27T11:41:18;101633.50;;;7.76;100.00
19086;BME280;9675;51.538;6.728;2022-11-27T11:43:55;101618.88;;;7.75;100.00
19086;BME280;9675;51.538;6.728;2022-11-27T11:46:27;101609.41;;;7.74;100.00
19086;BME280;9675;51.538;6.728;2022-11-27T11:48:59;101598.38;;;7.75;100.00
19086;BME280;9675;51.538;6.728;2022-11-27T11:51:54;101587.22;;;7.75;100.00
19086;BME280;9675;51.538;6.728;2022-11-27T11:54:38;101589.91;;;7.76;100.00
19086;BME280;9675;51.538;6.728;2022-11-27T12:00:39;101589.22;;;7.79;100.00
19086;BME280;9675;51.538;6.728;2022-11-27T12:03:31;101591.91;;;7.80;100.00
19086;BME280;9675;51.538;6.728;2022-11-27T12:06:22;101593.69;;;7.81;100.00
19086;BME280;9675;51.538;6.728;2022-11-27T12:09:05;101588.56;;;7.81;100.00
19086;BME280;9675;51.538;6.728;2022-11-27T12:11:43;101585.00;;;7.79;100.00
19086;BME280;9675;51.538;6.728;2022-11-27T12:14:38;101586.09;;;7.83;100.00
19086;BME280;9675;51.538;6.728;2022-11-27T12:17:23;101580.31;;;7.85;100.00
19086;BME280;9675;51.538;6.728;2022-11-27T12:20:14;101566.72;;;7.86;100.00
19086;BME280;9675;51.538;6.728;2022-11-27T12:23:31;101564.69;;;7.94;100.00
19086;BME280;9675;51.538;6.728;2022-11-27T12:26:14;101563.56;;;8.02;100.00
19086;BME280;9675;51.538;6.728;2022-11-27T12:32:26;101553.63;;;8.06;100.00
19086;BME280;9675;51.538;6.728;2022-11-27T12:35:20;101557.75;;;8.04;100.00
19086;BME280;9675;51.538;6.728;2022-11-27T12:38:03;101554.41;;;8.05;100.00
19086;BME280;9675;51.538;6.728;2022-11-27T12:40:52;101545.94;;;8.06;100.00
19086;BME280;9675;51.538;6.728;2022-11-27T12:43:24;101552.88;;;8.07;100.00
19086;BME280;9675;51.538;6.728;2022-11-27T12:45:58;101544.34;;;8.08;100.00
19086;BME280;9675;51.538;6.728;2022-11-27T12:48:35;101538.44;;;8.09;100.00
19086;BME280;9675;51.538;6.728;2022-11-27T12:51:10;101535.88;;;8.09;100.00
19086;BME280;9675;51.538;6.728;2022-11-27T12:53:43;101529.88;;;8.09;100.00
19086;BME280;9675;51.538;6.728;2022-11-27T12:56:19;101510.25;;;8.09;100.00
19086;BME280;9675;51.538;6.728;2022-11-27T12:58:54;101507.91;;;8.13;100.00
19086;BME280;9675;51.538;6.728;2022-11-27T13:01:28;101501.97;;;8.13;100.00
19086;BME280;9675;51.538;6.728;2022-11-27T13:04:09;101496.84;;;8.13;100.00
19086;BME280;9675;51.538;6.728;2022-11-27T13:06:51;101485.81;;;8.15;100.00
19086;BME280;9675;51.538;6.728;2022-11-27T13:09:33;101474.75;;;8.16;100.00
19086;BME280;9675;51.538;6.728;2022-11-27T13:12:03;101475.78;;;8.18;100.00
19086;BME280;9675;51.538;6.728;2022-11-27T13:14:35;101471.63;;;8.20;100.00
19086;BME280;9675;51.538;6.728;2022-11-27T13:17:10;101465.59;;;8.31;100.00
19086;BME280;9675;51.538;6.728;2022-11-27T13:19:44;101471.25;;;8.38;100.00
19086;BME280;9675;51.538;6.728;2022-11-27T13:22:20;101470.88;;;8.45;100.00
19086;BME280;9675;51.538;6.728;2022-11-27T13:24:52;101467.81;;;8.51;100.00
19086;BME280;9675;51.538;6.728;2022-11-27T13:27:24;101469.72;;;8.53;100.00
19086;BME280;9675;51.538;6.728;2022-11-27T13:29:56;101466.38;;;8.55;100.00
19086;BME280;9675;51.538;6.728;2022-11-27T13:32:28;101460.66;;;8.59;100.00